sensor_id;sensor_type;location;lat;lon;timestamp;temperature;humidity
4433;DHT22;2229;48.708;9.706;2023-01-16T00:00:07;3.80;92.50
4433;DHT22;2229;48.708;9.706;2023-01-16T00:02:38;3.70;92.40
4433;DHT22;2229;48.708;9.706;2023-01-16T00:05:08;3.70;92.30
4433;DHT22;2229;48.708;9.706;2023-01-16T00:07:35;3.70;92.30
4433;DHT22;2229;48.708;9.706;2023-01-16T00:10:03;3.80;92.30
4433;DHT22;2229;48.708;9.706;2023-01-16T00:12:32;3.80;92.30
4433;DHT22;2229;48.708;9.706;2023-01-16T00:14:59;3.80;92.30
4433;DHT22;2229;48.708;9.706;2023-01-16T00:17:26;3.80;92.20
4433;DHT22;2229;48.708;9.706;2023-01-16T00:19:54;3.80;92.10
4433;DHT22;2229;48.708;9.706;2023-01-16T00:22:23;3.90;92.10
4433;DHT22;2229;48.708;9.706;2023-01-16T00:24:50;3.80;92.10
4433;DHT22;2229;48.708;9.706;2023-01-16T00:27:18;3.50;91.90
4433;DHT22;2229;48.708;9.706;2023-01-16T00:29:46;3.80;92.00
4433;DHT22;2229;48.708;9.706;2023-01-16T00:32:13;3.90;92.00
4433;DHT22;2229;48.708;9.706;2023-01-16T00:34:41;3.90;91.90
4433;DHT22;2229;48.708;9.706;2023-01-16T00:37:10;3.90;91.90
4433;DHT22;2229;48.708;9.706;2023-01-16T00:39:39;4.00;91.80
4433;DHT22;2229;48.708;9.706;2023-01-16T00:42:07;4.00;91.70
4433;DHT22;2229;48.708;9.706;2023-01-16T00:44:34;4.00;91.70
4433;DHT22;2229;48.708;9.706;2023-01-16T00:47:02;4.00;91.70
4433;DHT22;2229;48.708;9.706;2023-01-16T00:49:31;4.00;91.70
4433;DHT22;2229;48.708;9.706;2023-01-16T00:51:58;4.10;91.60
4433;DHT22;2229;48.708;9.706;2023-01-16T00:54:25;4.10;91.50
4433;DHT22;2229;48.708;9.706;2023-01-16T00:56:54;4.10;91.40
4433;DHT22;2229;48.708;9.706;2023-01-16T00:59:25;4.10;91.40
4433;DHT22;2229;48.708;9.706;2023-01-16T01:01:52;4.10;91.40
4433;DHT22;2229;48.708;9.706;2023-01-16T01:04:20;4.00;91.30
4433;DHT22;2229;48.708;9.706;2023-01-16T01:06:48;4.00;91.30
4433;DHT22;2229;48.708;9.706;2023-01-16T01:09:16;4.00;91.30
4433;DHT22;2229;48.708;9.706;2023-01-16T01:11:44;4.00;91.40
4433;DHT22;2229;48.708;9.706;2023-01-16T01:14:16;4.00;91.40
4433;DHT22;2229;48.708;9.706;2023-01-16T01:16:44;4.00;91.50
4433;DHT22;2229;48.708;9.706;2023-01-16T01:19:11;4.00;91.50
4433;DHT22;2229;48.708;9.706;2023-01-16T01:21:39;4.00;91.50
4433;DHT22;2229;48.708;9.706;2023-01-16T01:24:06;4.00;91.50
4433;DHT22;2229;48.708;9.706;2023-01-16T01:26:34;4.00;91.50
4433;DHT22;2229;48.708;9.706;2023-01-16T01:29:03;4.10;91.60
4433;DHT22;2229;48.708;9.706;2023-01-16T01:31:32;4.10;91.50
4433;DHT22;2229;48.708;9.706;2023-01-16T01:33:59;4.10;91.40
4433;DHT22;2229;48.708;9.706;2023-01-16T01:36:27;4.10;91.30
4433;DHT22;2229;48.708;9.706;2023-01-16T01:38:54;4.10;91.20
4433;DHT22;2229;48.708;9.706;2023-01-16T01:41:23;4.10;91.20
4433;DHT22;2229;48.708;9.706;2023-01-16T01:43:53;4.10;91.20
4433;DHT22;2229;48.708;9.706;2023-01-16T01:46:24;4.10;91.00
4433;DHT22;2229;48.708;9.706;2023-01-16T01:48:59;4.10;91.10
4433;DHT22;2229;48.708;9.706;2023-01-16T01:51:30;4.00;91.00
4433;DHT22;2229;48.708;9.706;2023-01-16T01:54:01;4.10;91.00
4433;DHT22;2229;48.708;9.706;2023-01-16T01:56:33;4.00;90.90
4433;DHT22;2229;48.708;9.706;2023-01-16T01:59:05;4.00;90.90
4433;DHT22;2229;48.708;9.706;2023-01-16T02:01:34;4.00;90.90
4433;DHT22;2229;48.708;9.706;2023-01-16T02:04:06;4.00;90.90
4433;DHT22;2229;48.708;9.706;2023-01-16T02:06:41;4.00;90.90
4433;DHT22;2229;48.708;9.706;2023-01-16T02:09:10;4.00;90.90
4433;DHT22;2229;48.708;9.706;2023-01-16T02:11:41;4.00;91.00
4433;DHT22;2229;48.708;9.706;2023-01-16T02:14:13;4.00;91.00
4433;DHT22;2229;48.708;9.706;2023-01-16T02:16:40;4.00;90.90
4433;DHT22;2229;48.708;9.706;2023-01-16T02:19:33;4.00;90.90
4433;DHT22;2229;48.708;9.706;2023-01-16T02:25:35;3.90;90.90
4433;DHT22;2229;48.708;9.706;2023-01-16T02:28:23;3.90;90.90
4433;DHT22;2229;48.708;9.706;2023-01-16T02:34:11;3.90;90.90
4433;DHT22;2229;48.708;9.706;2023-01-16T02:36:49;3.90;90.90
4433;DHT22;2229;48.708;9.706;2023-01-16T02:39:28;3.90;90.90
4433;DHT22;2229;48.708;9.706;2023-01-16T02:42:07;3.90;90.90
4433;DHT22;2229;48.708;9.706;2023-01-16T02:44:41;3.90;90.90
4433;DHT22;2229;48.708;9.706;2023-01-16T02:47:18;3.90;91.00
4433;DHT22;2229;48.708;9.706;2023-01-16T02:49:57;3.90;91.00
4433;DHT22;2229;48.708;9.706;2023-01-16T02:52:31;3.90;91.00
4433;DHT22;2229;48.708;9.706;2023-01-16T02:55:01;3.90;90.90
4433;DHT22;2229;48.708;9.706;2023-01-16T02:57:33;3.90;90.80
4433;DHT22;2229;48.708;9.706;2023-01-16T03:00:03;3.90;90.80
4433;DHT22;2229;48.708;9.706;2023-01-16T03:02:31;3.90;90.70
4433;DHT22;2229;48.708;9.706;2023-01-16T03:05:00;3.90;90.60
4433;DHT22;2229;48.708;9.706;2023-01-16T03:07:49;3.90;90.60
4433;DHT22;2229;48.708;9.706;2023-01-16T03:10:46;3.90;90.50
4433;DHT22;2229;48.708;9.706;2023-01-16T03:13:24;3.90;90.40
4433;DHT22;2229;48.708;9.706;2023-01-16T03:16:02;3.90;90.50
4433;DHT22;2229;48.708;9.706;2023-01-16T03:18:35;3.90;90.50
4433;DHT22;2229;48.708;9.706;2023-01-16T03:21:12;3.90;90.70
4433;DHT22;2229;48.708;9.706;2023-01-16T03:23:50;3.80;90.60
4433;DHT22;2229;48.708;9.706;2023-01-16T03:26:26;3.80;91.00
4433;DHT22;2229;48.708;9.706;2023-01-16T03:29:02;3.70;90.90
4433;DHT22;2229;48.708;9.706;2023-01-16T03:31:34;3.60;90.90
4433;DHT22;2229;48.708;9.706;2023-01-16T03:34:11;3.50;91.00
4433;DHT22;2229;48.708;9.706;2023-01-16T03:36:46;3.50;91.20
4433;DHT22;2229;48.708;9.706;2023-01-16T03:39:22;3.40;91.30
4433;DHT22;2229;48.708;9.706;2023-01-16T03:41:53;3.30;91.50
4433;DHT22;2229;48.708;9.706;2023-01-16T03:44:23;3.30;91.40
4433;DHT22;2229;48.708;9.706;2023-01-16T03:46:55;3.20;91.50
4433;DHT22;2229;48.708;9.706;2023-01-16T03:49:25;3.30;91.60
4433;DHT22;2229;48.708;9.706;2023-01-16T03:51:58;3.20;91.60
4433;DHT22;2229;48.708;9.706;2023-01-16T03:54:35;3.10;91.60
4433;DHT22;2229;48.708;9.706;2023-01-16T03:57:08;3.20;91.50
4433;DHT22;2229;48.708;9.706;2023-01-16T03:59:37;3.20;91.30
4433;DHT22;2229;48.708;9.706;2023-01-16T04:02:11;3.20;91.10
4433;DHT22;2229;48.708;9.706;2023-01-16T04:04:41;3.30;91.20
4433;DHT22;2229;48.708;9.706;2023-01-16T04:07:17;3.40;90.80
4433;DHT22;2229;48.708;9.706;2023-01-16T04:09:52;3.40;90.70
4433;DHT22;2229;48.708;9.706;2023-01-16T04:12:25;3.40;90.50
4433;DHT22;2229;48.708;9.706;2023-01-16T04:14:59;3.50;90.30
4433;DHT22;2229;48.708;9.706;2023-01-16T04:17:27;3.50;90.30
4433;DHT22;2229;48.708;9.706;2023-01-16T04:19:56;3.60;90.20
4433;DHT22;2229;48.708;9.706;2023-01-16T04:22:27;3.60;90.20
4433;DHT22;2229;48.708;9.706;2023-01-16T04:24:58;3.60;90.10
4433;DHT22;2229;48.708;9.706;2023-01-16T04:27:25;3.60;90.10
4433;DHT22;2229;48.708;9.706;2023-01-16T04:29:53;3.70;90.20
4433;DHT22;2229;48.708;9.706;2023-01-16T04:32:22;3.70;90.10
4433;DHT22;2229;48.708;9.706;2023-01-16T04:34:51;3.70;90.20
4433;DHT22;2229;48.708;9.706;2023-01-16T04:37:19;3.60;90.20
4433;DHT22;2229;48.708;9.706;2023-01-16T04:39:53;3.70;90.30
4433;DHT22;2229;48.708;9.706;2023-01-16T04:42:20;3.70;90.30
4433;DHT22;2229;48.708;9.706;2023-01-16T04:44:48;3.70;90.40
4433;DHT22;2229;48.708;9.706;2023-01-16T04:47:16;3.70;90.30
4433;DHT22;2229;48.708;9.706;2023-01-16T04:49:45;3.70;90.30
4433;DHT22;2229;48.708;9.706;2023-01-16T04:52:13;3.70;90.40
4433;DHT22;2229;48.708;9.706;2023-01-16T04:54:41;3.60;90.50
4433;DHT22;2229;48.708;9.706;2023-01-16T04:57:11;3.50;90.60
4433;DHT22;2229;48.708;9.706;2023-01-16T04:59:39;3.50;90.60
4433;DHT22;2229;48.708;9.706;2023-01-16T05:02:07;3.40;90.70
4433;DHT22;2229;48.708;9.706;2023-01-16T05:04:34;3.30;90.70
4433;DHT22;2229;48.708;9.706;2023-01-16T05:07:02;3.20;90.80
4433;DHT22;2229;48.708;9.706;2023-01-16T05:09:29;3.10;90.90
4433;DHT22;2229;48.708;9.706;2023-01-16T05:11:56;3.00;90.90
4433;DHT22;2229;48.708;9.706;2023-01-16T05:14:26;2.90;91.10
4433;DHT22;2229;48.708;9.706;2023-01-16T05:16:54;2.80;91.20
4433;DHT22;2229;48.708;9.706;2023-01-16T05:19:21;2.80;91.30
4433;DHT22;2229;48.708;9.706;2023-01-16T05:21:49;2.80;91.50
4433;DHT22;2229;48.708;9.706;2023-01-16T05:24:17;2.70;91.60
4433;DHT22;2229;48.708;9.706;2023-01-16T05:26:44;2.70;91.70
4433;DHT22;2229;48.708;9.706;2023-01-16T05:29:11;2.70;91.90
4433;DHT22;2229;48.708;9.706;2023-01-16T05:31:40;2.70;92.00
4433;DHT22;2229;48.708;9.706;2023-01-16T05:34:08;2.60;92.20
4433;DHT22;2229;48.708;9.706;2023-01-16T05:36:36;2.60;92.30
4433;DHT22;2229;48.708;9.706;2023-01-16T05:39:05;2.50;92.40
4433;DHT22;2229;48.708;9.706;2023-01-16T05:41:32;2.50;92.50
4433;DHT22;2229;48.708;9.706;2023-01-16T05:44:00;2.50;92.50
4433;DHT22;2229;48.708;9.706;2023-01-16T05:46:28;2.50;92.60
4433;DHT22;2229;48.708;9.706;2023-01-16T05:48:56;2.40;92.60
4433;DHT22;2229;48.708;9.706;2023-01-16T05:51:24;2.40;92.70
4433;DHT22;2229;48.708;9.706;2023-01-16T05:53:52;2.40;92.70
4433;DHT22;2229;48.708;9.706;2023-01-16T05:56:21;2.50;92.70
4433;DHT22;2229;48.708;9.706;2023-01-16T05:58:51;2.50;92.70
4433;DHT22;2229;48.708;9.706;2023-01-16T06:01:19;2.50;92.70
4433;DHT22;2229;48.708;9.706;2023-01-16T06:03:47;2.40;92.80
4433;DHT22;2229;48.708;9.706;2023-01-16T06:06:15;2.40;92.80
4433;DHT22;2229;48.708;9.706;2023-01-16T06:08:43;2.40;92.80
4433;DHT22;2229;48.708;9.706;2023-01-16T06:11:10;2.40;92.80
4433;DHT22;2229;48.708;9.706;2023-01-16T06:13:39;2.50;92.80
4433;DHT22;2229;48.708;9.706;2023-01-16T06:16:09;2.50;92.70
4433;DHT22;2229;48.708;9.706;2023-01-16T06:18:39;2.50;92.80
4433;DHT22;2229;48.708;9.706;2023-01-16T06:21:06;2.40;93.10
4433;DHT22;2229;48.708;9.706;2023-01-16T06:23:35;2.40;92.80
4433;DHT22;2229;48.708;9.706;2023-01-16T06:26:03;2.40;92.80
4433;DHT22;2229;48.708;9.706;2023-01-16T06:28:35;2.70;93.00
4433;DHT22;2229;48.708;9.706;2023-01-16T06:31:03;2.30;92.80
4433;DHT22;2229;48.708;9.706;2023-01-16T06:33:31;2.30;92.80
4433;DHT22;2229;48.708;9.706;2023-01-16T06:35:58;2.30;92.80
4433;DHT22;2229;48.708;9.706;2023-01-16T06:38:26;2.30;92.90
4433;DHT22;2229;48.708;9.706;2023-01-16T06:40:56;2.20;92.90
4433;DHT22;2229;48.708;9.706;2023-01-16T06:43:24;2.20;93.00
4433;DHT22;2229;48.708;9.706;2023-01-16T06:45:51;2.10;93.00
4433;DHT22;2229;48.708;9.706;2023-01-16T06:48:19;2.20;93.00
4433;DHT22;2229;48.708;9.706;2023-01-16T06:50:46;2.20;93.10
4433;DHT22;2229;48.708;9.706;2023-01-16T06:53:14;2.20;93.10
4433;DHT22;2229;48.708;9.706;2023-01-16T06:55:42;2.20;93.00
4433;DHT22;2229;48.708;9.706;2023-01-16T06:58:11;2.20;93.00
4433;DHT22;2229;48.708;9.706;2023-01-16T07:00:38;2.20;93.00
4433;DHT22;2229;48.708;9.706;2023-01-16T07:03:05;2.20;92.90
4433;DHT22;2229;48.708;9.706;2023-01-16T07:05:32;2.20;92.90
4433;DHT22;2229;48.708;9.706;2023-01-16T07:08:00;2.30;93.10
4433;DHT22;2229;48.708;9.706;2023-01-16T07:10:28;2.30;93.00
4433;DHT22;2229;48.708;9.706;2023-01-16T07:12:55;2.30;93.10
4433;DHT22;2229;48.708;9.706;2023-01-16T07:15:24;2.40;93.10
4433;DHT22;2229;48.708;9.706;2023-01-16T07:18:11;2.40;92.70
4433;DHT22;2229;48.708;9.706;2023-01-16T07:20:59;2.60;92.70
4433;DHT22;2229;48.708;9.706;2023-01-16T07:23:47;2.60;92.50
4433;DHT22;2229;48.708;9.706;2023-01-16T07:26:16;2.60;92.40
4433;DHT22;2229;48.708;9.706;2023-01-16T07:28:45;2.70;92.20
4433;DHT22;2229;48.708;9.706;2023-01-16T07:31:14;2.70;92.10
4433;DHT22;2229;48.708;9.706;2023-01-16T07:33:42;2.70;92.00
4433;DHT22;2229;48.708;9.706;2023-01-16T07:36:10;2.70;92.00
4433;DHT22;2229;48.708;9.706;2023-01-16T07:38:38;2.70;91.80
4433;DHT22;2229;48.708;9.706;2023-01-16T07:41:06;2.70;91.90
4433;DHT22;2229;48.708;9.706;2023-01-16T07:43:33;2.80;92.00
4433;DHT22;2229;48.708;9.706;2023-01-16T07:46:00;2.70;91.80
4433;DHT22;2229;48.708;9.706;2023-01-16T07:48:29;2.80;91.90
4433;DHT22;2229;48.708;9.706;2023-01-16T07:50:57;3.00;91.90
4433;DHT22;2229;48.708;9.706;2023-01-16T07:53:27;2.90;91.70
4433;DHT22;2229;48.708;9.706;2023-01-16T07:55:57;3.00;91.90
4433;DHT22;2229;48.708;9.706;2023-01-16T07:58:26;3.00;91.80
4433;DHT22;2229;48.708;9.706;2023-01-16T08:00:54;3.00;91.60
4433;DHT22;2229;48.708;9.706;2023-01-16T08:03:22;3.10;91.80
4433;DHT22;2229;48.708;9.706;2023-01-16T08:05:54;3.10;91.80
4433;DHT22;2229;48.708;9.706;2023-01-16T08:08:22;3.20;91.80
4433;DHT22;2229;48.708;9.706;2023-01-16T08:10:55;3.30;91.50
4433;DHT22;2229;48.708;9.706;2023-01-16T08:13:23;3.40;91.60
4433;DHT22;2229;48.708;9.706;2023-01-16T08:15:51;3.50;91.20
4433;DHT22;2229;48.708;9.706;2023-01-16T08:18:19;3.60;91.10
4433;DHT22;2229;48.708;9.706;2023-01-16T08:20:47;3.80;90.90
4433;DHT22;2229;48.708;9.706;2023-01-16T08:23:16;3.90;89.90
4433;DHT22;2229;48.708;9.706;2023-01-16T08:25:43;4.10;89.10
4433;DHT22;2229;48.708;9.706;2023-01-16T08:28:11;4.30;88.10
4433;DHT22;2229;48.708;9.706;2023-01-16T08:30:39;4.70;87.80
4433;DHT22;2229;48.708;9.706;2023-01-16T08:33:06;5.20;85.40
4433;DHT22;2229;48.708;9.706;2023-01-16T08:35:33;5.40;82.60
4433;DHT22;2229;48.708;9.706;2023-01-16T08:38:00;5.50;81.60
4433;DHT22;2229;48.708;9.706;2023-01-16T08:40:29;5.30;80.90
4433;DHT22;2229;48.708;9.706;2023-01-16T08:42:56;5.10;81.40
4433;DHT22;2229;48.708;9.706;2023-01-16T08:45:41;4.80;81.70
4433;DHT22;2229;48.708;9.706;2023-01-16T08:48:26;4.60;82.80
4433;DHT22;2229;48.708;9.706;2023-01-16T08:51:15;4.50;84.00
4433;DHT22;2229;48.708;9.706;2023-01-16T08:53:53;4.40;84.40
4433;DHT22;2229;48.708;9.706;2023-01-16T08:56:23;4.30;84.20
4433;DHT22;2229;48.708;9.706;2023-01-16T08:58:50;4.20;84.40
4433;DHT22;2229;48.708;9.706;2023-01-16T09:01:19;4.10;84.10
4433;DHT22;2229;48.708;9.706;2023-01-16T09:03:46;4.00;84.10
4433;DHT22;2229;48.708;9.706;2023-01-16T09:06:14;4.00;84.50
4433;DHT22;2229;48.708;9.706;2023-01-16T09:08:42;4.00;84.50
4433;DHT22;2229;48.708;9.706;2023-01-16T09:11:09;4.00;84.40
4433;DHT22;2229;48.708;9.706;2023-01-16T09:13:55;4.00;84.30
4433;DHT22;2229;48.708;9.706;2023-01-16T09:16:26;4.00;84.00
4433;DHT22;2229;48.708;9.706;2023-01-16T09:18:53;4.00;84.40
4433;DHT22;2229;48.708;9.706;2023-01-16T09:21:21;4.00;83.60
4433;DHT22;2229;48.708;9.706;2023-01-16T09:23:49;4.10;81.60
4433;DHT22;2229;48.708;9.706;2023-01-16T09:26:17;4.10;82.10
4433;DHT22;2229;48.708;9.706;2023-01-16T09:28:44;4.10;82.00
4433;DHT22;2229;48.708;9.706;2023-01-16T09:31:13;4.20;83.20
4433;DHT22;2229;48.708;9.706;2023-01-16T09:33:40;4.20;83.20
4433;DHT22;2229;48.708;9.706;2023-01-16T09:36:07;4.30;83.30
4433;DHT22;2229;48.708;9.706;2023-01-16T09:38:35;4.30;82.90
4433;DHT22;2229;48.708;9.706;2023-01-16T09:41:02;4.30;82.80
4433;DHT22;2229;48.708;9.706;2023-01-16T09:43:35;4.20;82.30
4433;DHT22;2229;48.708;9.706;2023-01-16T09:46:09;4.20;82.60
4433;DHT22;2229;48.708;9.706;2023-01-16T09:48:47;4.20;82.30
4433;DHT22;2229;48.708;9.706;2023-01-16T09:51:19;4.20;81.00
4433;DHT22;2229;48.708;9.706;2023-01-16T09:53:51;4.20;81.20
4433;DHT22;2229;48.708;9.706;2023-01-16T09:56:40;4.20;80.80
4433;DHT22;2229;48.708;9.706;2023-01-16T09:59:28;4.30;81.00
4433;DHT22;2229;48.708;9.706;2023-01-16T10:02:03;4.30;80.70
4433;DHT22;2229;48.708;9.706;2023-01-16T10:04:33;4.20;82.00
4433;DHT22;2229;48.708;9.706;2023-01-16T10:07:30;4.10;81.70
4433;DHT22;2229;48.708;9.706;2023-01-16T10:10:04;4.10;82.20
4433;DHT22;2229;48.708;9.706;2023-01-16T10:12:35;4.10;82.80
4433;DHT22;2229;48.708;9.706;2023-01-16T10:15:14;4.10;82.60
4433;DHT22;2229;48.708;9.706;2023-01-16T10:17:52;4.20;82.70
4433;DHT22;2229;48.708;9.706;2023-01-16T10:20:39;4.30;82.50
4433;DHT22;2229;48.708;9.706;2023-01-16T10:23:21;4.30;81.60
4433;DHT22;2229;48.708;9.706;2023-01-16T10:26:02;4.40;79.70
4433;DHT22;2229;48.708;9.706;2023-01-16T10:28:46;4.40;79.30
4433;DHT22;2229;48.708;9.706;2023-01-16T10:31:20;4.40;80.10
4433;DHT22;2229;48.708;9.706;2023-01-16T10:33:53;4.40;80.10
4433;DHT22;2229;48.708;9.706;2023-01-16T10:36:28;4.40;79.50
4433;DHT22;2229;48.708;9.706;2023-01-16T10:38:59;4.50;79.80
4433;DHT22;2229;48.708;9.706;2023-01-16T10:41:29;4.50;78.60
4433;DHT22;2229;48.708;9.706;2023-01-16T10:44:31;4.50;79.40
4433;DHT22;2229;48.708;9.706;2023-01-16T10:47:22;4.50;78.90
4433;DHT22;2229;48.708;9.706;2023-01-16T10:50:08;4.60;78.30
4433;DHT22;2229;48.708;9.706;2023-01-16T10:52:37;4.60;77.90
4433;DHT22;2229;48.708;9.706;2023-01-16T10:55:06;4.60;78.50
4433;DHT22;2229;48.708;9.706;2023-01-16T10:57:33;4.60;77.70
4433;DHT22;2229;48.708;9.706;2023-01-16T11:00:06;4.60;78.10
4433;DHT22;2229;48.708;9.706;2023-01-16T11:02:39;4.60;78.50
4433;DHT22;2229;48.708;9.706;2023-01-16T11:05:23;4.70;81.80
4433;DHT22;2229;48.708;9.706;2023-01-16T11:07:54;4.90;80.30
4433;DHT22;2229;48.708;9.706;2023-01-16T11:10:22;4.90;77.10
4433;DHT22;2229;48.708;9.706;2023-01-16T11:12:51;4.90;76.40
4433;DHT22;2229;48.708;9.706;2023-01-16T11:15:36;4.90;77.30
4433;DHT22;2229;48.708;9.706;2023-01-16T11:18:26;4.90;76.30
4433;DHT22;2229;48.708;9.706;2023-01-16T11:20:58;4.90;75.60
4433;DHT22;2229;48.708;9.706;2023-01-16T11:23:36;4.90;74.90
4433;DHT22;2229;48.708;9.706;2023-01-16T11:26:04;4.80;75.60
4433;DHT22;2229;48.708;9.706;2023-01-16T11:28:33;4.80;75.60
4433;DHT22;2229;48.708;9.706;2023-01-16T11:31:03;4.80;75.30
4433;DHT22;2229;48.708;9.706;2023-01-16T11:33:34;4.80;74.70
4433;DHT22;2229;48.708;9.706;2023-01-16T11:36:05;4.90;74.60
4433;DHT22;2229;48.708;9.706;2023-01-16T11:38:37;4.90;74.60
4433;DHT22;2229;48.708;9.706;2023-01-16T11:41:08;4.90;74.80
4433;DHT22;2229;48.708;9.706;2023-01-16T11:43:36;4.90;75.40
4433;DHT22;2229;48.708;9.706;2023-01-16T11:46:30;5.00;75.20
4433;DHT22;2229;48.708;9.706;2023-01-16T11:49:00;5.10;75.30
4433;DHT22;2229;48.708;9.706;2023-01-16T11:51:30;5.10;75.80
4433;DHT22;2229;48.708;9.706;2023-01-16T11:54:02;5.10;76.10
4433;DHT22;2229;48.708;9.706;2023-01-16T11:56:55;5.20;75.90
4433;DHT22;2229;48.708;9.706;2023-01-16T11:59:41;5.20;74.30
4433;DHT22;2229;48.708;9.706;2023-01-16T12:02:20;5.30;73.70
4433;DHT22;2229;48.708;9.706;2023-01-16T12:05:04;5.40;74.20
4433;DHT22;2229;48.708;9.706;2023-01-16T12:08:06;5.60;75.00
4433;DHT22;2229;48.708;9.706;2023-01-16T12:10:42;5.70;75.70
4433;DHT22;2229;48.708;9.706;2023-01-16T12:13:11;5.80;76.60
4433;DHT22;2229;48.708;9.706;2023-01-16T12:16:06;5.90;77.30
4433;DHT22;2229;48.708;9.706;2023-01-16T12:18:43;6.00;79.10
4433;DHT22;2229;48.708;9.706;2023-01-16T12:21:26;6.10;80.10
4433;DHT22;2229;48.708;9.706;2023-01-16T12:24:10;6.10;80.40
4433;DHT22;2229;48.708;9.706;2023-01-16T12:26:46;6.20;80.90
4433;DHT22;2229;48.708;9.706;2023-01-16T12:29:25;6.20;81.60
4433;DHT22;2229;48.708;9.706;2023-01-16T12:32:12;6.20;82.60
4433;DHT22;2229;48.708;9.706;2023-01-16T12:37:49;6.30;85.10
4433;DHT22;2229;48.708;9.706;2023-01-16T12:40:28;6.40;85.80
4433;DHT22;2229;48.708;9.706;2023-01-16T12:43:05;6.40;86.20
4433;DHT22;2229;48.708;9.706;2023-01-16T12:45:48;6.50;86.40
4433;DHT22;2229;48.708;9.706;2023-01-16T12:48:33;6.70;87.00
4433;DHT22;2229;48.708;9.706;2023-01-16T12:51:19;6.50;87.60
4433;DHT22;2229;48.708;9.706;2023-01-16T12:59:50;6.50;87.90
4433;DHT22;2229;48.708;9.706;2023-01-16T13:02:23;6.50;88.00
4433;DHT22;2229;48.708;9.706;2023-01-16T13:04:58;6.50;88.10
4433;DHT22;2229;48.708;9.706;2023-01-16T13:07:29;6.50;88.10
4433;DHT22;2229;48.708;9.706;2023-01-16T13:10:03;6.50;88.40
4433;DHT22;2229;48.708;9.706;2023-01-16T13:12:56;6.50;88.20
4433;DHT22;2229;48.708;9.706;2023-01-16T13:15:46;6.50;88.60
4433;DHT22;2229;48.708;9.706;2023-01-16T13:18:19;6.50;88.60
4433;DHT22;2229;48.708;9.706;2023-01-16T13:20:52;6.50;88.30
4433;DHT22;2229;48.708;9.706;2023-01-16T13:23:24;6.50;88.70
4433;DHT22;2229;48.708;9.706;2023-01-16T13:25:55;6.50;88.70
4433;DHT22;2229;48.708;9.706;2023-01-16T13:28:35;6.50;88.90
4433;DHT22;2229;48.708;9.706;2023-01-16T13:31:11;6.50;87.90
4433;DHT22;2229;48.708;9.706;2023-01-16T13:33:43;6.60;93.40
4433;DHT22;2229;48.708;9.706;2023-01-16T13:36:24;6.50;93.70
4433;DHT22;2229;48.708;9.706;2023-01-16T13:39:13;6.50;93.60
4433;DHT22;2229;48.708;9.706;2023-01-16T13:41:45;6.70;92.60
4433;DHT22;2229;48.708;9.706;2023-01-16T13:44:16;6.60;93.00
4433;DHT22;2229;48.708;9.706;2023-01-16T13:47:19;6.40;92.70
4433;DHT22;2229;48.708;9.706;2023-01-16T13:49:48;6.50;92.30
4433;DHT22;2229;48.708;9.706;2023-01-16T13:52:19;6.40;92.00
4433;DHT22;2229;48.708;9.706;2023-01-16T13:54:50;6.60;92.30
4433;DHT22;2229;48.708;9.706;2023-01-16T13:57:21;6.80;92.80
4433;DHT22;2229;48.708;9.706;2023-01-16T13:59:50;7.30;92.50
4433;DHT22;2229;48.708;9.706;2023-01-16T14:02:40;6.70;92.20
4433;DHT22;2229;48.708;9.706;2023-01-16T14:05:20;6.20;91.60
4433;DHT22;2229;48.708;9.706;2023-01-16T14:08:04;6.70;91.90
4433;DHT22;2229;48.708;9.706;2023-01-16T14:11:04;6.80;91.80
4433;DHT22;2229;48.708;9.706;2023-01-16T14:13:40;6.60;91.70
4433;DHT22;2229;48.708;9.706;2023-01-16T14:16:29;6.80;91.50
4433;DHT22;2229;48.708;9.706;2023-01-16T14:19:20;6.90;91.60
4433;DHT22;2229;48.708;9.706;2023-01-16T14:21:48;7.30;91.20
4433;DHT22;2229;48.708;9.706;2023-01-16T14:24:52;7.30;90.40
4433;DHT22;2229;48.708;9.706;2023-01-16T14:27:21;7.00;90.10
4433;DHT22;2229;48.708;9.706;2023-01-16T14:29:52;7.00;90.20
4433;DHT22;2229;48.708;9.706;2023-01-16T14:32:24;7.00;90.30
4433;DHT22;2229;48.708;9.706;2023-01-16T14:34:56;6.90;90.10
4433;DHT22;2229;48.708;9.706;2023-01-16T14:37:26;6.80;90.00
4433;DHT22;2229;48.708;9.706;2023-01-16T14:39:56;7.00;90.50
4433;DHT22;2229;48.708;9.706;2023-01-16T14:42:28;6.80;90.00
4433;DHT22;2229;48.708;9.706;2023-01-16T14:45:24;6.10;89.10
4433;DHT22;2229;48.708;9.706;2023-01-16T14:48:13;7.10;90.10
4433;DHT22;2229;48.708;9.706;2023-01-16T14:51:11;6.90;90.30
4433;DHT22;2229;48.708;9.706;2023-01-16T14:54:02;6.80;90.20
4433;DHT22;2229;48.708;9.706;2023-01-16T14:56:50;6.60;90.10
4433;DHT22;2229;48.708;9.706;2023-01-16T14:59:22;6.60;90.00
4433;DHT22;2229;48.708;9.706;2023-01-16T15:01:59;6.60;90.00
4433;DHT22;2229;48.708;9.706;2023-01-16T15:04:51;6.60;90.00
4433;DHT22;2229;48.708;9.706;2023-01-16T15:07:26;6.80;90.20
4433;DHT22;2229;48.708;9.706;2023-01-16T15:10:00;6.70;90.00
4433;DHT22;2229;48.708;9.706;2023-01-16T15:12:36;6.90;90.30
4433;DHT22;2229;48.708;9.706;2023-01-16T15:15:05;6.40;90.20
4433;DHT22;2229;48.708;9.706;2023-01-16T15:17:34;6.30;90.00
4433;DHT22;2229;48.708;9.706;2023-01-16T15:20:22;6.40;90.20
4433;DHT22;2229;48.708;9.706;2023-01-16T15:23:17;5.70;89.90
4433;DHT22;2229;48.708;9.706;2023-01-16T15:26:04;6.10;90.50
4433;DHT22;2229;48.708;9.706;2023-01-16T15:28:38;6.10;89.80
4433;DHT22;2229;48.708;9.706;2023-01-16T15:31:14;6.00;90.50
4433;DHT22;2229;48.708;9.706;2023-01-16T15:33:42;6.20;91.20
4433;DHT22;2229;48.708;9.706;2023-01-16T15:36:18;6.10;90.80
4433;DHT22;2229;48.708;9.706;2023-01-16T15:38:49;5.90;90.80
4433;DHT22;2229;48.708;9.706;2023-01-16T15:41:18;5.80;90.80
4433;DHT22;2229;48.708;9.706;2023-01-16T15:44:12;5.90;91.10
4433;DHT22;2229;48.708;9.706;2023-01-16T15:47:08;5.80;91.10
4433;DHT22;2229;48.708;9.706;2023-01-16T15:49:44;5.60;91.00
4433;DHT22;2229;48.708;9.706;2023-01-16T15:52:14;5.70;91.00
4433;DHT22;2229;48.708;9.706;2023-01-16T15:54:42;5.50;90.90
4433;DHT22;2229;48.708;9.706;2023-01-16T15:57:15;5.80;91.10
4433;DHT22;2229;48.708;9.706;2023-01-16T15:59:50;5.70;91.00
4433;DHT22;2229;48.708;9.706;2023-01-16T16:02:19;5.90;91.20
4433;DHT22;2229;48.708;9.706;2023-01-16T16:04:51;5.80;91.30
4433;DHT22;2229;48.708;9.706;2023-01-16T16:07:21;5.80;90.20
4433;DHT22;2229;48.708;9.706;2023-01-16T16:09:52;5.90;90.60
4433;DHT22;2229;48.708;9.706;2023-01-16T16:12:21;6.00;90.80
4433;DHT22;2229;48.708;9.706;2023-01-16T16:14:49;5.90;91.20
4433;DHT22;2229;48.708;9.706;2023-01-16T16:18:00;6.10;91.50
4433;DHT22;2229;48.708;9.706;2023-01-16T16:20:30;6.20;91.90
4433;DHT22;2229;48.708;9.706;2023-01-16T16:23:05;6.00;91.70
4433;DHT22;2229;48.708;9.706;2023-01-16T16:25:40;6.00;92.30
4433;DHT22;2229;48.708;9.706;2023-01-16T16:28:21;6.10;92.80
4433;DHT22;2229;48.708;9.706;2023-01-16T16:30:55;5.90;93.30
4433;DHT22;2229;48.708;9.706;2023-01-16T16:33:24;5.90;93.20
4433;DHT22;2229;48.708;9.706;2023-01-16T16:35:53;5.80;93.30
4433;DHT22;2229;48.708;9.706;2023-01-16T16:38:23;5.80;93.30
4433;DHT22;2229;48.708;9.706;2023-01-16T16:44:24;5.70;92.30
4433;DHT22;2229;48.708;9.706;2023-01-16T16:46:56;5.60;92.80
4433;DHT22;2229;48.708;9.706;2023-01-16T16:49:34;5.80;92.80
4433;DHT22;2229;48.708;9.706;2023-01-16T16:52:20;5.70;92.10
4433;DHT22;2229;48.708;9.706;2023-01-16T16:54:54;5.60;92.80
4433;DHT22;2229;48.708;9.706;2023-01-16T16:57:23;5.60;92.90
4433;DHT22;2229;48.708;9.706;2023-01-16T16:59:54;5.60;92.90
4433;DHT22;2229;48.708;9.706;2023-01-16T17:02:22;5.70;93.00
4433;DHT22;2229;48.708;9.706;2023-01-16T17:04:51;5.40;92.90
4433;DHT22;2229;48.708;9.706;2023-01-16T17:07:20;5.50;92.90
4433;DHT22;2229;48.708;9.706;2023-01-16T17:09:48;5.50;92.80
4433;DHT22;2229;48.708;9.706;2023-01-16T17:12:16;5.50;92.90
4433;DHT22;2229;48.708;9.706;2023-01-16T17:14:44;5.70;93.00